createdAt,value
2022-11-07T00:01:13.796Z,406.85
2022-11-07T00:03:40.619Z,408.25
2022-11-07T00:21:22.226Z,414.15
2022-11-07T00:23:48.932Z,413.63
2022-11-07T00:26:15.609Z,415.65
2022-11-07T00:28:43.655Z,414.98
2022-11-07T00:31:12.901Z,414.77
2022-11-07T00:33:40.342Z,413.25
2022-11-07T00:36:07.764Z,415.33
2022-11-07T00:38:34.375Z,414.73
2022-11-07T00:41:06.477Z,413.98
2022-11-07T00:43:33.625Z,419.57
2022-11-07T00:46:04.643Z,419.42
2022-11-07T00:48:32.176Z,424.15
2022-11-07T00:51:12.377Z,420.00
2022-11-07T00:53:39.821Z,422.42
2022-11-07T00:56:12.216Z,425.52
2022-11-07T00:58:39.929Z,418.15
2022-11-07T01:01:12.309Z,420.98
2022-11-07T01:03:59.010Z,427.88
2022-11-07T01:06:28.611Z,419.10
2022-11-07T01:08:56.552Z,405.98
2022-11-07T01:11:25.163Z,419.10
2022-11-07T01:13:55.869Z,417.35
2022-11-07T01:16:22.664Z,416.58
2022-11-07T01:18:49.609Z,417.05
2022-11-07T01:21:16.756Z,412.10
2022-11-07T01:23:43.812Z,409.13
2022-11-07T01:26:12.253Z,406.98
2022-11-07T01:28:39.222Z,409.85
2022-11-07T01:31:07.611Z,414.83
2022-11-07T01:33:34.567Z,416.58
2022-11-07T01:36:06.102Z,408.17
2022-11-07T01:38:32.952Z,404.52
2022-11-07T01:41:18.245Z,415.90
2022-11-07T01:43:50.915Z,425.10
2022-11-07T01:46:18.775Z,417.40
2022-11-07T01:48:51.865Z,422.85
2022-11-07T01:51:22.676Z,429.17
2022-11-07T01:53:51.102Z,431.30
2022-11-07T01:56:22.292Z,432.15
2022-11-07T01:58:48.960Z,432.13
2022-11-07T02:01:17.193Z,431.30
2022-11-07T02:03:44.387Z,431.23
2022-11-07T02:06:17.990Z,433.98
2022-11-07T02:08:46.482Z,428.05
2022-11-07T02:11:13.907Z,426.00
2022-11-07T02:13:40.552Z,432.05
2022-11-07T02:16:07.373Z,431.13
2022-11-07T02:18:36.953Z,427.67
2022-11-07T02:21:12.451Z,425.58
2022-11-07T02:23:48.517Z,428.95
2022-11-07T02:26:15.660Z,430.42
2022-11-07T02:28:43.375Z,432.37
2022-11-07T02:31:10.060Z,432.00
2022-11-07T02:33:36.696Z,426.02
2022-11-07T02:36:03.543Z,432.42
2022-11-07T02:38:36.637Z,426.98
2022-11-07T02:41:08.204Z,426.73
2022-11-07T02:43:37.912Z,424.02
2022-11-07T02:46:09.834Z,428.52
2022-11-07T02:48:49.655Z,439.00
2022-11-07T02:51:17.028Z,438.63
2022-11-07T02:53:43.799Z,442.03
2022-11-07T02:56:10.945Z,438.03
2022-11-07T02:58:37.801Z,435.33
2022-11-07T03:01:08.424Z,437.92
2022-11-07T03:03:36.843Z,436.85
2022-11-07T03:06:03.516Z,435.73
2022-11-07T03:08:30.112Z,455.15
2022-11-07T03:10:56.903Z,429.38
2022-11-07T03:13:23.705Z,425.77
2022-11-07T03:15:51.532Z,428.42
2022-11-07T03:18:18.684Z,436.50
2022-11-07T03:20:45.711Z,422.42
2022-11-07T03:23:12.695Z,425.65
2022-11-07T03:25:39.552Z,426.20
2022-11-07T03:28:06.079Z,426.88
2022-11-07T03:30:32.722Z,426.52
2022-11-07T03:32:59.848Z,427.10
2022-11-07T03:35:27.820Z,422.40
2022-11-07T03:37:54.765Z,426.58
2022-11-07T03:40:21.311Z,435.70
2022-11-07T03:42:47.926Z,427.30
2022-11-07T03:45:16.102Z,435.17
2022-11-07T03:47:44.080Z,434.85
2022-11-07T03:50:14.489Z,434.33
2022-11-07T03:52:41.043Z,441.75
2022-11-07T03:55:11.459Z,425.13
2022-11-07T03:57:38.750Z,418.15
2022-11-07T04:00:06.360Z,436.50
2022-11-07T04:02:38.724Z,542.80
2022-11-07T04:05:05.886Z,482.38
2022-11-07T04:07:32.456Z,466.50
2022-11-07T04:09:59.104Z,448.00
2022-11-07T04:12:44.189Z,467.02
2022-11-07T04:15:30.167Z,469.35
2022-11-07T04:17:56.786Z,454.50
2022-11-07T04:20:23.405Z,472.83
2022-11-07T04:22:50.076Z,466.98
2022-11-07T04:25:16.640Z,446.50
2022-11-07T04:27:43.227Z,458.80
2022-11-07T04:30:24.386Z,450.25
2022-11-07T04:32:56.066Z,554.63
2022-11-07T04:35:28.387Z,577.38
2022-11-07T04:37:55.355Z,465.08
2022-11-07T04:40:22.342Z,479.40
2022-11-07T04:42:49.696Z,467.23
2022-11-07T04:45:17.220Z,458.48
2022-11-07T04:47:44.108Z,461.65
2022-11-07T04:50:12.727Z,543.15
2022-11-07T04:52:39.603Z,559.33
2022-11-07T04:55:08.405Z,563.78
2022-11-07T04:57:35.042Z,487.65
2022-11-07T05:00:05.254Z,493.70
2022-11-07T05:02:32.041Z,454.33
2022-11-07T05:04:58.821Z,473.83
2022-11-07T05:07:31.323Z,453.40
2022-11-07T05:09:57.855Z,496.45
2022-11-07T05:12:24.445Z,476.53
2022-11-07T05:14:50.988Z,471.23
2022-11-07T05:17:17.663Z,464.77
2022-11-07T05:19:44.444Z,501.83
2022-11-07T05:22:29.967Z,467.40
2022-11-07T05:24:56.589Z,472.50
2022-11-07T05:27:23.809Z,467.65
2022-11-07T05:29:51.038Z,447.90
2022-11-07T05:32:18.173Z,473.25
2022-11-07T05:34:44.728Z,470.30
2022-11-07T05:37:12.801Z,465.30
2022-11-07T05:39:39.745Z,473.15
2022-11-07T05:42:06.588Z,451.67
2022-11-07T05:44:33.560Z,438.65
2022-11-07T05:47:00.866Z,450.65
2022-11-07T05:49:27.379Z,449.67
2022-11-07T05:51:54.035Z,464.83
2022-11-07T05:54:20.870Z,469.05
2022-11-07T05:56:47.438Z,448.25
2022-11-07T05:59:15.050Z,472.15
2022-11-07T06:01:41.972Z,447.50
2022-11-07T06:04:08.832Z,456.00
2022-11-07T06:06:35.482Z,443.30
2022-11-07T06:09:02.060Z,431.00
2022-11-07T06:11:28.751Z,452.17
2022-11-07T06:13:55.333Z,442.67
2022-11-07T06:16:21.889Z,458.90
2022-11-07T06:18:48.686Z,441.83
2022-11-07T06:21:16.804Z,429.40
2022-11-07T06:23:43.625Z,444.33
2022-11-07T06:26:10.755Z,428.92
2022-11-07T06:28:37.723Z,433.20
2022-11-07T06:31:05.003Z,428.17
2022-11-07T06:33:31.847Z,421.73
2022-11-07T06:36:09.753Z,434.92
2022-11-07T06:38:37.565Z,421.23
2022-11-07T06:41:12.775Z,422.98
2022-11-07T06:43:39.762Z,418.25
2022-11-07T06:46:09.452Z,414.08
2022-11-07T06:48:36.353Z,425.00
2022-11-07T06:51:05.577Z,408.42
2022-11-07T06:53:32.878Z,425.02
2022-11-07T06:56:00.456Z,433.10
2022-11-07T06:58:27.129Z,533.75
2022-11-07T07:00:54.133Z,456.15
2022-11-07T07:03:20.736Z,512.58
2022-11-07T07:05:47.305Z,511.58
2022-11-07T07:08:14.885Z,484.90
2022-11-07T07:10:44.385Z,481.42
2022-11-07T07:13:12.884Z,489.35
2022-11-07T07:15:50.393Z,482.52
2022-11-07T07:18:18.964Z,491.45
2022-11-07T07:20:53.978Z,481.20
2022-11-07T07:23:23.832Z,519.00
2022-11-07T07:25:52.728Z,539.25
2022-11-07T07:28:20.769Z,534.35
2022-11-07T07:30:51.539Z,550.20
2022-11-07T07:33:18.998Z,479.27
2022-11-07T07:35:46.011Z,487.73
2022-11-07T07:38:12.704Z,492.10
2022-11-07T07:40:39.415Z,479.92
2022-11-07T07:43:09.021Z,484.67
2022-11-07T07:45:35.631Z,501.70
2022-11-07T07:48:02.535Z,486.30
2022-11-07T07:50:29.343Z,493.25
2022-11-07T07:52:57.904Z,470.73
2022-11-07T07:55:24.673Z,507.98
2022-11-07T07:57:51.441Z,525.03
2022-11-07T08:00:18.253Z,487.67
2022-11-07T08:02:44.918Z,523.63
2022-11-07T08:05:13.428Z,477.13
2022-11-07T08:07:50.837Z,513.28
2022-11-07T08:13:05.665Z,481.77
2022-11-07T08:15:32.359Z,473.50
2022-11-07T08:18:02.103Z,478.55
2022-11-07T08:20:28.722Z,452.40
2022-11-07T08:23:03.774Z,467.63
2022-11-07T08:25:30.894Z,466.17
2022-11-07T08:27:57.767Z,459.65
2022-11-07T08:30:24.623Z,487.70
2022-11-07T08:32:51.315Z,476.33
2022-11-07T08:35:17.915Z,456.00
2022-11-07T08:37:47.381Z,449.05
2022-11-07T08:40:19.146Z,462.10
2022-11-07T08:42:45.892Z,454.95
2022-11-07T08:45:12.462Z,488.45
2022-11-07T08:47:39.093Z,467.33
2022-11-07T08:50:08.107Z,466.63
2022-11-07T08:52:36.159Z,488.47
2022-11-07T08:55:04.265Z,480.48
2022-11-07T08:57:30.863Z,489.67
2022-11-07T08:59:57.710Z,488.58
2022-11-07T09:05:11.304Z,424.80
2022-11-07T09:07:39.706Z,392.33
2022-11-07T09:10:06.926Z,415.17
2022-11-07T09:12:36.093Z,492.27
2022-11-07T09:15:03.719Z,500.25
2022-11-07T09:17:33.363Z,533.17
2022-11-07T09:20:02.631Z,424.60
2022-11-07T09:22:29.272Z,408.85
2022-11-07T09:24:56.034Z,422.02
2022-11-07T09:27:25.557Z,414.48
2022-11-07T09:29:52.743Z,431.02
2022-11-07T09:32:43.164Z,418.95
2022-11-07T09:35:06.831Z,419.73
2022-11-07T09:37:33.419Z,441.95
2022-11-07T09:40:00.165Z,411.75
2022-11-07T09:42:44.998Z,426.58
2022-11-07T09:45:13.350Z,415.67
2022-11-07T09:47:39.941Z,430.52
2022-11-07T09:50:18.147Z,432.02
2022-11-07T09:53:07.824Z,413.65
2022-11-07T09:55:38.376Z,436.70
2022-11-07T09:58:25.149Z,414.02
2022-11-07T10:00:53.963Z,416.15
2022-11-07T10:03:20.572Z,414.25
2022-11-07T10:06:02.746Z,497.95
2022-11-07T10:08:38.573Z,502.67
2022-11-07T10:11:28.206Z,500.30
2022-11-07T10:14:02.797Z,513.10
2022-11-07T10:16:38.111Z,506.52
2022-11-07T10:19:29.771Z,490.55
2022-11-07T10:22:05.930Z,484.08
2022-11-07T10:25:19.305Z,523.90
2022-11-07T10:27:54.037Z,507.92
2022-11-07T10:30:25.528Z,511.05
2022-11-07T10:33:17.205Z,488.10
2022-11-07T10:35:49.046Z,462.57
2022-11-07T10:38:28.248Z,477.42
2022-11-07T10:40:55.496Z,453.53
2022-11-07T10:43:38.789Z,462.75
2022-11-07T10:46:18.909Z,442.40
2022-11-07T10:49:17.729Z,447.92
2022-11-07T10:51:48.912Z,441.55
2022-11-07T10:54:22.048Z,451.35
2022-11-07T10:56:56.393Z,456.30
2022-11-07T10:59:35.662Z,441.02
2022-11-07T11:02:43.918Z,443.95
2022-11-07T11:05:50.219Z,462.60
2022-11-07T11:08:20.296Z,477.05
2022-11-07T11:10:48.699Z,485.75
2022-11-07T11:13:34.219Z,507.83
2022-11-07T11:16:37.574Z,495.17
2022-11-07T11:19:05.648Z,496.40
2022-11-07T11:21:44.290Z,451.98
2022-11-07T11:24:23.251Z,389.52
2022-11-07T11:26:52.442Z,405.63
2022-11-07T11:29:39.166Z,505.60
2022-11-07T11:32:46.514Z,415.77
2022-11-07T11:35:31.934Z,417.35
2022-11-07T11:38:21.642Z,384.25
2022-11-07T11:41:21.366Z,400.83
2022-11-07T11:43:57.408Z,395.52
2022-11-07T11:46:33.538Z,396.27
2022-11-07T11:49:15.284Z,488.70
2022-11-07T11:51:55.060Z,389.23
2022-11-07T11:54:22.125Z,395.98
2022-11-07T11:56:55.836Z,401.40
2022-11-07T11:59:37.284Z,379.55
2022-11-07T12:02:13.037Z,486.10
2022-11-07T12:04:58.023Z,511.95
2022-11-07T12:08:14.418Z,509.48
2022-11-07T12:10:55.561Z,522.03
2022-11-07T12:13:47.621Z,415.25
2022-11-07T12:16:30.515Z,524.17
2022-11-07T12:19:32.746Z,427.73
2022-11-07T12:22:14.771Z,400.08
2022-11-07T12:24:52.788Z,394.73
2022-11-07T12:27:28.478Z,406.88
2022-11-07T12:30:18.612Z,401.40
2022-11-07T12:33:02.609Z,392.25
2022-11-07T12:35:47.422Z,383.17
2022-11-07T12:38:14.498Z,516.22
2022-11-07T12:41:06.605Z,425.20
2022-11-07T12:43:42.140Z,523.65
2022-11-07T12:46:43.834Z,546.92
2022-11-07T12:49:31.384Z,523.83
2022-11-07T12:52:17.619Z,503.77
2022-11-07T12:54:51.572Z,510.00
2022-11-07T12:57:25.253Z,534.63
2022-11-07T13:00:06.841Z,523.22
2022-11-07T13:03:12.420Z,513.38
2022-11-07T13:06:18.486Z,522.10
2022-11-07T13:08:57.437Z,405.60
2022-11-07T13:11:55.404Z,380.50
2022-11-07T13:14:37.164Z,370.13
2022-11-07T13:17:30.969Z,363.38
2022-11-07T13:19:59.294Z,369.25
2022-11-07T13:22:32.271Z,374.00
2022-11-07T13:25:06.138Z,380.30
2022-11-07T13:27:40.043Z,377.63
2022-11-07T13:30:15.563Z,376.65
2022-11-07T13:32:48.245Z,361.02
2022-11-07T13:35:35.321Z,367.50
2022-11-07T13:38:24.317Z,373.52
2022-11-07T13:40:52.685Z,382.70
2022-11-07T13:43:46.145Z,383.15
2022-11-07T13:46:29.751Z,452.08
2022-11-07T13:49:01.784Z,424.83
2022-11-07T13:51:37.366Z,417.33
2022-11-07T13:54:31.504Z,363.65
2022-11-07T13:57:23.368Z,385.30
2022-11-07T13:59:58.939Z,394.02
2022-11-07T14:02:28.376Z,394.73
2022-11-07T14:05:16.911Z,387.73
2022-11-07T14:07:49.394Z,394.17
2022-11-07T14:10:21.502Z,392.58
2022-11-07T14:12:48.831Z,391.23
2022-11-07T14:15:17.349Z,386.52
2022-11-07T14:17:46.207Z,381.85
2022-11-07T14:20:15.518Z,392.08
2022-11-07T14:22:52.918Z,393.33
2022-11-07T14:25:24.718Z,385.53
2022-11-07T14:27:51.505Z,508.67
2022-11-07T14:30:20.601Z,518.05
2022-11-07T14:32:52.922Z,526.90
2022-11-07T14:35:28.745Z,505.20
2022-11-07T14:37:57.396Z,514.50
2022-11-07T14:40:25.590Z,528.25
2022-11-07T14:42:54.582Z,516.05
2022-11-07T14:45:56.558Z,423.70
2022-11-07T14:48:13.016Z,407.65
2022-11-07T14:50:44.537Z,412.40
2022-11-07T14:53:17.029Z,379.25
2022-11-07T14:55:49.598Z,406.10
2022-11-07T14:58:19.583Z,392.73
2022-11-07T15:00:58.486Z,413.33
2022-11-07T15:03:34.196Z,402.20
2022-11-07T15:06:01.154Z,410.25
2022-11-07T15:08:34.549Z,417.38
2022-11-07T15:11:01.126Z,391.75
2022-11-07T15:13:32.964Z,395.50
2022-11-07T15:16:07.884Z,381.93
2022-11-07T15:18:39.737Z,395.55
2022-11-07T15:21:06.984Z,388.60
2022-11-07T15:23:35.388Z,393.10
2022-11-07T15:26:07.979Z,403.73
2022-11-07T15:28:49.399Z,392.83
2022-11-07T15:31:26.176Z,395.48
2022-11-07T15:33:53.894Z,403.30
2022-11-07T15:36:21.606Z,521.38
2022-11-07T15:38:49.724Z,510.97
2022-11-07T15:41:16.686Z,444.27
2022-11-07T15:43:43.745Z,403.95
2022-11-07T15:46:39.211Z,407.13
2022-11-07T15:49:09.659Z,385.02
2022-11-07T15:51:36.328Z,386.15
2022-11-07T15:54:10.456Z,408.25
2022-11-07T15:56:37.340Z,395.23
2022-11-07T15:59:05.540Z,383.88
2022-11-07T16:01:32.302Z,370.27
2022-11-07T16:03:59.105Z,376.75
2022-11-07T16:06:31.289Z,383.27
2022-11-07T16:08:58.216Z,397.92
2022-11-07T16:11:24.921Z,354.73
2022-11-07T16:13:59.290Z,641.92
2022-11-07T16:16:36.813Z,646.80
2022-11-07T16:19:03.781Z,620.97
2022-11-07T16:21:30.777Z,607.58
2022-11-07T16:23:57.933Z,576.03
2022-11-07T16:26:28.886Z,574.88
2022-11-07T16:28:56.245Z,565.42
2022-11-07T16:31:22.940Z,567.63
2022-11-07T16:33:49.644Z,576.47
2022-11-07T16:36:30.245Z,606.63
2022-11-07T16:38:57.001Z,618.58
2022-11-07T16:41:23.599Z,615.53
2022-11-07T16:43:50.279Z,603.92
2022-11-07T16:46:20.138Z,608.88
2022-11-07T16:48:51.349Z,603.47
2022-11-07T16:51:20.289Z,615.40
2022-11-07T16:53:49.364Z,623.90
2022-11-07T16:56:29.285Z,675.83
2022-11-07T16:58:56.756Z,668.42
2022-11-07T17:01:24.893Z,674.15
2022-11-07T17:03:52.313Z,664.00
2022-11-07T17:06:33.512Z,660.07
2022-11-07T17:09:10.311Z,657.50
2022-11-07T17:11:39.893Z,656.03
2022-11-07T17:14:06.500Z,606.70
2022-11-07T17:16:36.576Z,637.33
2022-11-07T17:19:06.524Z,629.93
2022-11-07T17:21:37.847Z,639.23
2022-11-07T17:24:04.762Z,635.08
2022-11-07T17:26:35.164Z,645.30
2022-11-07T17:29:02.679Z,638.47
2022-11-07T17:31:29.240Z,634.20
2022-11-07T17:33:56.028Z,628.85
2022-11-07T17:36:36.374Z,637.33
2022-11-07T17:39:11.743Z,637.30
2022-11-07T17:41:40.538Z,671.15
2022-11-07T17:44:07.605Z,671.22
2022-11-07T17:46:36.183Z,639.70
2022-11-07T17:49:06.998Z,640.55
2022-11-07T17:51:36.000Z,635.80
2022-11-07T17:54:03.147Z,644.88
2022-11-07T17:56:31.360Z,647.08
2022-11-07T17:59:00.302Z,655.08
2022-11-07T18:01:30.461Z,627.97
2022-11-07T18:03:57.977Z,645.17
2022-11-07T18:06:25.841Z,638.58
2022-11-07T18:08:54.819Z,638.55
2022-11-07T18:11:27.767Z,636.75
2022-11-07T18:13:55.756Z,633.33
2022-11-07T18:16:33.956Z,637.95
2022-11-07T18:19:01.952Z,635.53
2022-11-07T18:21:28.982Z,634.58
2022-11-07T18:23:57.280Z,634.60
2022-11-07T18:26:30.493Z,619.53
2022-11-07T18:29:04.958Z,561.63
2022-11-07T18:31:35.896Z,564.35
2022-11-07T18:34:07.800Z,547.30
2022-11-07T18:36:39.965Z,542.67
2022-11-07T18:39:22.581Z,557.47
2022-11-07T18:41:50.691Z,558.42
2022-11-07T18:44:17.458Z,567.17
2022-11-07T18:46:44.601Z,571.78
2022-11-07T18:49:14.191Z,583.58
2022-11-07T18:51:42.902Z,558.40
2022-11-07T18:54:10.655Z,572.00
2022-11-07T18:56:39.795Z,567.85
2022-11-07T18:59:06.577Z,572.50
2022-11-07T19:01:37.181Z,544.60
2022-11-07T19:04:08.299Z,546.17
2022-11-07T19:06:35.383Z,550.08
2022-11-07T19:09:02.918Z,541.00
2022-11-07T19:11:31.922Z,542.85
2022-11-07T19:14:02.942Z,538.17
2022-11-07T19:16:30.065Z,528.92
2022-11-07T19:18:58.985Z,526.50
2022-11-07T19:21:25.846Z,524.07
2022-11-07T19:23:52.450Z,535.67
2022-11-07T19:26:19.345Z,546.10
2022-11-07T19:28:46.273Z,566.10
2022-11-07T19:31:13.748Z,538.95
2022-11-07T19:33:43.898Z,547.25
2022-11-07T19:36:20.154Z,567.17
2022-11-07T19:38:48.026Z,526.97
2022-11-07T19:41:16.152Z,528.53
2022-11-07T19:43:44.693Z,552.35
2022-11-07T19:46:15.291Z,558.28
2022-11-07T19:48:44.529Z,562.40
2022-11-07T19:51:21.252Z,539.65
2022-11-07T19:53:59.968Z,525.90
2022-11-07T19:56:29.884Z,541.92
2022-11-07T19:58:56.940Z,548.38
2022-11-07T20:01:27.964Z,533.78
2022-11-07T20:03:58.334Z,548.53
2022-11-07T20:06:30.309Z,539.67
2022-11-07T20:08:57.421Z,552.65
2022-11-07T20:11:26.073Z,539.72
2022-11-07T20:14:02.766Z,550.75
2022-11-07T20:16:34.298Z,575.28
2022-11-07T20:19:01.461Z,575.70
2022-11-07T20:21:29.328Z,558.00
2022-11-07T20:24:00.615Z,569.28
2022-11-07T20:26:32.328Z,561.05
2022-11-07T20:29:01.923Z,555.45
2022-11-07T20:31:32.710Z,548.97
2022-11-07T20:34:01.600Z,558.78
2022-11-07T20:36:31.602Z,554.75
2022-11-07T20:39:00.877Z,554.03
2022-11-07T20:41:28.439Z,544.83
2022-11-07T20:44:15.375Z,541.05
2022-11-07T20:46:44.907Z,536.10
2022-11-07T20:49:15.949Z,563.10
2022-11-07T20:51:43.823Z,546.60
2022-11-07T20:54:15.271Z,544.80
2022-11-07T20:56:43.586Z,550.30
2022-11-07T20:59:10.712Z,559.40
2022-11-07T21:01:37.760Z,559.42
2022-11-07T21:04:06.460Z,559.58
2022-11-07T21:06:34.402Z,564.47
2022-11-07T21:09:01.065Z,563.97
2022-11-07T21:11:29.406Z,558.25
2022-11-07T21:13:56.695Z,558.72
2022-11-07T21:16:24.113Z,562.67
2022-11-07T21:18:51.877Z,570.72
2022-11-07T21:21:23.987Z,562.42
2022-11-07T21:23:51.606Z,577.93
2022-11-07T21:26:23.863Z,587.88
2022-11-07T21:28:50.647Z,586.55
2022-11-07T21:31:23.547Z,589.53
2022-11-07T21:33:51.494Z,592.75
2022-11-07T21:36:21.155Z,595.22
2022-11-07T21:38:47.918Z,602.53
2022-11-07T21:41:15.511Z,614.60
2022-11-07T21:43:42.518Z,628.38
2022-11-07T21:46:13.535Z,653.40
2022-11-07T21:48:41.139Z,662.42
2022-11-07T21:51:14.939Z,666.47
2022-11-07T21:53:41.818Z,665.20
2022-11-07T21:56:12.576Z,668.27
2022-11-07T21:58:42.697Z,676.00
2022-11-07T22:01:09.560Z,662.60
2022-11-07T22:04:06.352Z,657.95
2022-11-07T22:06:22.985Z,657.05
2022-11-07T22:08:51.596Z,651.40
2022-11-07T22:11:18.541Z,639.53
2022-11-07T22:13:45.232Z,631.30
2022-11-07T22:16:17.738Z,627.35
2022-11-07T22:18:44.651Z,629.17
2022-11-07T22:21:17.273Z,633.20
2022-11-07T22:23:44.270Z,621.30
2022-11-07T22:26:13.473Z,621.42
2022-11-07T22:28:45.558Z,617.58
2022-11-07T22:31:20.544Z,604.08
2022-11-07T22:33:47.740Z,600.45
2022-11-07T22:36:14.882Z,608.15
2022-11-07T22:38:42.117Z,607.50
2022-11-07T22:41:13.954Z,601.22
2022-11-07T22:43:40.813Z,609.75
2022-11-07T22:46:10.508Z,602.67
2022-11-07T22:48:38.558Z,606.57
2022-11-07T22:51:06.841Z,621.90
2022-11-07T22:53:34.398Z,611.25
2022-11-07T22:56:13.019Z,610.20
2022-11-07T22:58:40.530Z,615.67
2022-11-07T23:01:22.378Z,617.45
2022-11-07T23:03:49.417Z,618.90
2022-11-07T23:06:16.995Z,618.17
2022-11-07T23:08:44.163Z,624.03
2022-11-07T23:11:45.382Z,624.85
2022-11-07T23:14:09.993Z,624.08
2022-11-07T23:16:44.224Z,628.28
2022-11-07T23:19:20.107Z,631.55
2022-11-07T23:21:47.010Z,635.20
2022-11-07T23:24:14.157Z,631.95
2022-11-07T23:26:41.062Z,632.63
2022-11-07T23:29:17.951Z,628.45
2022-11-07T23:31:50.313Z,635.07
2022-11-07T23:34:18.086Z,631.53
2022-11-07T23:36:48.352Z,631.42
2022-11-07T23:39:20.669Z,629.80
2022-11-07T23:41:50.413Z,624.08
2022-11-07T23:44:20.814Z,622.20
2022-11-07T23:47:11.214Z,617.78
2022-11-07T23:49:59.080Z,633.22
2022-11-07T23:52:25.813Z,628.78
2022-11-07T23:55:13.120Z,629.40
2022-11-07T23:57:58.272Z,630.63
